Weather at Donegal Airport

Public forecast

Using degrees Celsius for public forecast. Weather courtesy of forecast.io.

Current aviation weather report (METAR) for Donegal Airport

Report is more than 6 hours old.

2022/11/14 15:30 (retrieved 2 years ago)

EIDL 141530Z 16015KT CAVOK 11/06 Q0997

Closest aviation forecast (TAF) to Donegal Airport

Forecast is more than 12 hours old.

Closest forecast is Ireland West Knock Airport, 70.1 nm (129.8 km) SSW.

2023/02/22 18:10 (retrieved 1 year ago)

TAF EIKN 221700Z 2218/2318 35015KT 9999 SCT015 BKN030 TEMPO 2218/2219 35017G28KT -SHRA SCT018CB BECMG 2301/2303 32005KT BECMG 2306/2308 VRB03KT PROB40 TEMPO 2311/2314 -RA BKN012 BECMG 2311/2313 32010KT